LERILEVC

Guest
Details From LERI - ALCANTARILLA
To LEVC - Valencia
Flight Number -
Tags generated
Created
Modified
Stats Distance 99 nm / 183 km
Max Altitude 0 ft / 0 m
Waypoints 3
Social Downloads 1
Likes 0
Share VATSIM

Download

Looking for another format? Having issues loading an existing format? Contact us
Advertisement - Login to hide

Notes

Basic altitude profile: - Ascent Rate: 2500ft/min - Ascent Speed: 250kts - Cruise Altitude: 12000ft - Cruise Speed: 420kts - Descent Rate: 1500ft/min - Descent Speed: 250kts Options: - Use NATs: yes - Use PACOTS: yes - Use low airways: yes - Use high airways: no

Route

LERI VLC LEVC

ID Type Via Altitude Latitude Longitude Leg Dist Tot Dist Heading (true) Name
O LERI APT - 0 ft / 0 m 37.95111˚ -1.23032˚ - 0 nm - ALCANTARILLA
VLC VOR - 0 ft / 0 m 39.48565˚ -0.48304˚ 98 nm 98 nm 21° / 21° VALENCIA VOR-DME
O LEVC APT - 0 ft / 0 m 39.48824˚ -0.48389˚ 0 nm 98 nm 346° / 346° Valencia

Altitude Profile

Advertisement - Login to hide

LERI

Details ICAO LERI
Name ALCANTARILLA
Region Spain
Timezone Europe/Madrid (UTC+2.0)
Stats Elevation 250 ft / 76 m (AMSL)
Location 37.951110° -1.230319°
Runways 1
Magnetic Variation 0.060° E

METAR

LERI 241700Z 08014KT 040V110 CAVOK 25/12 Q1011 NOSIG

Decode

TAF

Not found

Departure Runways

ID Width Length Bearing (true) Bearing (mag) Surface Threshold Offset Overrun Length
07 148 ft / 45 m 3,099 ft / 945 m 64.86° 64.80° Asphalt 0 ft / 0 m 0 ft / 0 m
25 148 ft / 45 m 3,099 ft / 945 m 244.86° 244.80° Asphalt 0 ft / 0 m 0 ft / 0 m

LEVC

Details ICAO LEVC (VLC)
Name Valencia
Region Spain
Timezone Europe/Madrid (UTC+2.0)
Stats Elevation 225 ft / 69 m (AMSL)
Location 39.488236° -0.483892°
Runways 2
Magnetic Variation 0.242° E

METAR

LEVC 241730Z 07010KT 030V110 9999 FEW035 22/15 Q1014 NOSIG

Decode

TAF

TAF LEVC 241100Z 2412/2512 08010KT 9999 FEW030 TX24/2413Z TN16/2506Z BECMG 2418/2421 VRB03KT TEMPO 2504/2512 06012KT

Decode

Destination Runways

ID Width Length Bearing (true) Bearing (mag) Surface Threshold Offset Overrun Length
12 148 ft / 45 m 10,555 ft / 3,217 m 116.25° 116.01° Asphalt 0 ft / 0 m 646 ft / 197 m
22 154 ft / 47 m 3,828 ft / 1,167 m 217.99° 217.75° Asphalt 0 ft / 0 m 0 ft / 0 m
30 148 ft / 45 m 10,555 ft / 3,217 m 296.27° 296.03° Asphalt 1,001 ft / 305 m 932 ft / 284 m
4 154 ft / 47 m 3,828 ft / 1,167 m 37.98° 37.74° Asphalt 0 ft / 0 m 0 ft / 0 m

Approach Navaids

Runway Type Ident Frequency Range Bearing (true) Bearing (mag) Slope Elevation
12 Localiser VLN 111.50 MHz 25 nm / 46 km 116.20° 115.96° - 256 ft / 78 m (AMSL)
12 Glidescope VLN 111.50 MHz 10 nm / 19 km 116.20° 115.96° 3.00° 256 ft / 78 m (AMSL)
12 DME VLN 111.50 MHz 25 nm / 46 km - - - 256 ft / 78 m (AMSL)
30 Localiser IVC 110.10 MHz 18 nm / 33 km 296.19° 295.95° - 225 ft / 69 m (AMSL)
30 Glidescope IVC 110.10 MHz 10 nm / 19 km 296.26° 296.02° 3.00° 225 ft / 69 m (AMSL)
30 DME IVC 110.10 MHz 18 nm / 33 km - - - 203 ft / 62 m (AMSL)